Evans, WA

5:27 AM PDT on October 22, 2014 (GMT -0700)
RAWS KETTLE FALLS WA US | Change Station
CLOSE
Current Station
Personal Weather Station
Location: Kettle Falls, WA
Elevation: 1310 ft
Nearby Weather Stations

Elev 1310 ft 48.61 °N, 118.12 °W | Updated 50 minutes ago

Mostly Cloudy
Mostly Cloudy
45 °F
Feels Like 45 °F
N
2
Wind Variable Wind from SE
Gusts 3.0 mph

Today
High -- | Low -- °F
--% Chance of Precip.
Yesterday
High -- | Low -- °F
Precip. -- in
7:23 AM 5:49 PM
Waning Crescent, 2% visible
Pressure 29.96 in
Visibility 10.0 miles
Clouds Clear
Windchill 45 °F
Dew Point 43 °F
Humidity 93%
Rainfall 0.00 in
Snow Depth 0 in
UV 0 out of 12
Pollen 1.10 out of 12
PM2.5 Good
Flu Activity Sporadic
METAR KDEW 221153Z AUTO 04004KT 10SM CLR 03/02 A2994 RMK AO2 SLP144 T00280022 10061 20000 58014

More Conditions Fewer Conditions

Pressure 29.96 in
Visibility 10.0 miles
Clouds Clear
Windchill 45 °F
Dew Point 43 °F
Humidity 93%
Rainfall 0.00 in
Snow Depth 0 in
UV 0 out of 12
Pollen 1.10 out of 12
PM2.5 Good
Flu Activity Sporadic
METAR KDEW 221153Z AUTO 04004KT 10SM CLR 03/02 A2994 RMK AO2 SLP144 T00280022 10061 20000 58014

More Conditions Fewer Conditions

10-Day Weather Forecast

Almanac

Astronomy

Oct. 22, 2014 Rise Set
Actual Time 7:23 AM PDT 5:49 PM PDT
Civil Twilight 6:50 AM PDT 6:21 PM PDT
Nautical Twilight 6:14 AM PDT 6:57 PM PDT
Astronomical Twilight 5:37 AM PDT 7:34 PM PDT
Moon 6:03 AM PDT 5:22 PM PDT
Length of Visible Light 11h 30m
Length of Day
10h 25m
Tomorrow will be 3m 22s shorter.
Waning Crescent, 2% of the Moon is Illuminated
Today
Waning Crescent
Oct 23
New
Oct 30
First Quarter
Nov 6
Full
Nov 14
Last Quarter

Today's Extremes

State Highs State Lows

Community

WunderPhotos

Upload Photos

1,763,907 photos uploaded!

Nearby

Air Quality

  Air Quality AQ Index Pollutant
Yesterday Good
PM10
Current Good
PM2.5
Wednesday Good
PM10
Wednesday Good
CO
Thursday Good
PM10
Thursday Good
CO
Friday Good
PM10
Friday Good
CO

Snow Depth

Station Depth Elevation
Sentinel Butte 0 in 4920 ft
Bunchgrass Meadow 0 in 5000 ft
Moses Mountain 0 in 5300 ft
Quartz Peak 2 in 4700 ft
Harts Pass 0 in 6500 ft

Earthquake Activity

City Distance Mag. Time & Date
No recent earthquake activity has been reported nearby.
Minimum magnitude displayed is 2.5.

Coastal Water Temperatures

Place Temperature
No Stations Reporting

Nearby Weather Stations